EDV5213 KDTW-KSYR
Flight info
| Callsign | EDV5213 |
|---|---|
| Flight time | 1h 5m |
| Altitude | 33000 |
| Route | HHOWE4 LNCON JHW |
| Aircraft | CRJ7/M-SDFGIRWY/S |
Departure
| Time | 2026-04-22 23:02 |
|---|---|
| Airport | Detroit Metropolitan Wayne County Airport (KDTW) |
Arrival
| Time | 2026-04-23 00:07 |
|---|---|
| Airport | Syracuse Hancock International Airport (KSYR) |
| Time | Latitude | Longitude | Altitude | Speed | Heading |
|---|---|---|---|---|---|
| 2026-04-22 22:27 | 42.21037 | -83.36041 | 639 ft | 0 kts | 299° |
| 2026-04-22 22:28 | 42.21077 | -83.36142 | 639 ft | 0 kts | 119° |
| 2026-04-22 22:46 | 42.21077 | -83.36141 | 639 ft | 0 kts | 119° |
| 2026-04-22 22:46 | 42.21083 | -83.36156 | 639 ft | 2 kts | 119° |
| 2026-04-22 22:46 | 42.21090 | -83.36174 | 639 ft | 2 kts | 119° |
| 2026-04-22 22:47 | 42.21095 | -83.36186 | 639 ft | 1 kts | 119° |
| 2026-04-22 22:47 | 42.21097 | -83.36204 | 639 ft | 2 kts | 71° |
| 2026-04-22 22:47 | 42.21090 | -83.36217 | 639 ft | 0 kts | 28° |
| 2026-04-22 22:47 | 42.21087 | -83.36219 | 639 ft | 0 kts | 28° |
| 2026-04-22 22:48 | 42.21101 | -83.36210 | 639 ft | 11 kts | 28° |
| 2026-04-22 22:49 | 42.21196 | -83.36142 | 639 ft | 17 kts | 31° |
| 2026-04-22 22:49 | 42.21307 | -83.36056 | 639 ft | 19 kts | 29° |
| 2026-04-22 22:49 | 42.21433 | -83.35963 | 639 ft | 19 kts | 27° |
| 2026-04-22 22:49 | 42.21474 | -83.35934 | 639 ft | 14 kts | 29° |
| 2026-04-22 22:50 | 42.21536 | -83.35878 | 639 ft | 7 kts | 63° |
| 2026-04-22 22:50 | 42.21542 | -83.35793 | 639 ft | 10 kts | 88° |
| 2026-04-22 22:50 | 42.21543 | -83.35682 | 639 ft | 13 kts | 89° |
| 2026-04-22 22:50 | 42.21547 | -83.35426 | 637 ft | 35 kts | 89° |
| 2026-04-22 22:51 | 42.21550 | -83.35272 | 635 ft | 17 kts | 89° |
| 2026-04-22 22:51 | 42.21553 | -83.35129 | 635 ft | 9 kts | 88° |
| 2026-04-22 22:51 | 42.21584 | -83.35047 | 635 ft | 11 kts | 42° |
| 2026-04-22 22:51 | 42.21648 | -83.34965 | 635 ft | 11 kts | 44° |
| 2026-04-22 22:52 | 42.21714 | -83.34880 | 635 ft | 14 kts | 44° |
| 2026-04-22 22:52 | 42.21784 | -83.34792 | 635 ft | 12 kts | 43° |
| 2026-04-22 22:52 | 42.21828 | -83.34731 | 635 ft | 2 kts | 52° |
| 2026-04-22 22:52 | 42.21835 | -83.34684 | 635 ft | 11 kts | 89° |
| 2026-04-22 22:53 | 42.21836 | -83.34565 | 635 ft | 6 kts | 89° |
| 2026-04-22 22:53 | 42.21853 | -83.34498 | 635 ft | 9 kts | 35° |
| 2026-04-22 22:53 | 42.21920 | -83.34455 | 635 ft | 11 kts | 27° |
| 2026-04-22 22:53 | 42.22002 | -83.34396 | 635 ft | 14 kts | 29° |
| 2026-04-22 22:54 | 42.22100 | -83.34323 | 635 ft | 17 kts | 29° |
| 2026-04-22 22:54 | 42.22210 | -83.34242 | 635 ft | 13 kts | 28° |
| 2026-04-22 22:54 | 42.22247 | -83.34214 | 635 ft | 7 kts | 28° |
| 2026-04-22 22:54 | 42.22301 | -83.34175 | 635 ft | 10 kts | 29° |
| 2026-04-22 22:55 | 42.22374 | -83.34121 | 634 ft | 13 kts | 29° |
| 2026-04-22 22:55 | 42.22472 | -83.34049 | 633 ft | 17 kts | 28° |
| 2026-04-22 22:55 | 42.22637 | -83.33928 | 632 ft | 12 kts | 28° |
| 2026-04-22 22:56 | 42.22722 | -83.33867 | 632 ft | 11 kts | 31° |
| 2026-04-22 22:56 | 42.22789 | -83.33813 | 632 ft | 8 kts | 28° |
| 2026-04-22 22:56 | 42.22834 | -83.33779 | 632 ft | 5 kts | 29° |
| 2026-04-22 22:56 | 42.22865 | -83.33755 | 632 ft | 0 kts | 40° |
| 2026-04-22 22:57 | 42.22869 | -83.33748 | 632 ft | 0 kts | 52° |
| 2026-04-22 22:57 | 42.22875 | -83.33733 | 632 ft | 2 kts | 73° |
| 2026-04-22 22:57 | 42.22862 | -83.33735 | 632 ft | 2 kts | 90° |
| 2026-04-22 22:57 | 42.22861 | -83.33722 | 632 ft | 1 kts | 102° |
| 2026-04-22 22:58 | 42.22860 | -83.33720 | 632 ft | 0 kts | 102° |
| 2026-04-22 22:58 | 42.22860 | -83.33719 | 632 ft | 0 kts | 102° |
| 2026-04-22 22:58 | 42.22854 | -83.33699 | 632 ft | 3 kts | 122° |
| 2026-04-22 22:58 | 42.22834 | -83.33657 | 632 ft | 6 kts | 123° |
| 2026-04-22 22:59 | 42.22813 | -83.33637 | 632 ft | 1 kts | 164° |
| 2026-04-22 22:59 | 42.22804 | -83.33636 | 632 ft | 1 kts | 179° |
| 2026-04-22 22:59 | 42.22784 | -83.33645 | 632 ft | 4 kts | 212° |
| 2026-04-22 22:59 | 42.22774 | -83.33653 | 632 ft | 0 kts | 212° |
| 2026-04-22 23:01 | 42.22773 | -83.33655 | 632 ft | 2 kts | 212° |
| 2026-04-22 23:01 | 42.22502 | -83.33856 | 632 ft | 99 kts | 208° |
| 2026-04-22 23:01 | 42.21635 | -83.34484 | 826 ft | 167 kts | 207° |
| 2026-04-22 23:02 | 42.20533 | -83.35265 | 1561 ft | 195 kts | 207° |
| 2026-04-22 23:02 | 42.19336 | -83.36121 | 2738 ft | 195 kts | 204° |
| 2026-04-22 23:02 | 42.17986 | -83.36258 | 3635 ft | 208 kts | 162° |
| 2026-04-22 23:02 | 42.16642 | -83.35535 | 4683 ft | 211 kts | 164° |
| 2026-04-22 23:03 | 42.15230 | -83.35038 | 5686 ft | 216 kts | 169° |
| 2026-04-22 23:03 | 42.13760 | -83.34573 | 6707 ft | 222 kts | 171° |
| 2026-04-22 23:03 | 42.12254 | -83.34139 | 7767 ft | 227 kts | 172° |
| 2026-04-22 23:03 | 42.10634 | -83.33550 | 8280 ft | 262 kts | 153° |
| 2026-04-22 23:04 | 42.09352 | -83.31739 | 8940 ft | 283 kts | 116° |
| 2026-04-22 23:04 | 42.08260 | -83.29530 | 9957 ft | 287 kts | 141° |
| 2026-04-22 23:04 | 42.06486 | -83.28437 | 10900 ft | 288 kts | 174° |
| 2026-04-22 23:04 | 42.04533 | -83.27734 | 11958 ft | 298 kts | 149° |
| 2026-04-22 23:05 | 42.03121 | -83.25760 | 13101 ft | 299 kts | 115° |
| 2026-04-22 23:05 | 42.02695 | -83.23097 | 14190 ft | 296 kts | 81° |
| 2026-04-22 23:05 | 42.03360 | -83.20597 | 15248 ft | 289 kts | 49° |
| 2026-04-22 23:05 | 42.04635 | -83.18561 | 16381 ft | 288 kts | 44° |
| 2026-04-22 23:06 | 42.05957 | -83.16512 | 17409 ft | 294 kts | 44° |
| 2026-04-22 23:06 | 42.07295 | -83.14435 | 18439 ft | 298 kts | 44° |
| 2026-04-22 23:06 | 42.08649 | -83.12334 | 19429 ft | 303 kts | 44° |
| 2026-04-22 23:06 | 42.10045 | -83.10172 | 20379 ft | 310 kts | 44° |
| 2026-04-22 23:07 | 42.11471 | -83.07958 | 21359 ft | 315 kts | 44° |
| 2026-04-22 23:07 | 42.12899 | -83.05738 | 22299 ft | 320 kts | 44° |
| 2026-04-22 23:07 | 42.14364 | -83.03460 | 23217 ft | 326 kts | 44° |
| 2026-04-22 23:07 | 42.15860 | -83.01122 | 24179 ft | 330 kts | 44° |
| 2026-04-22 23:08 | 42.17347 | -82.98798 | 25136 ft | 333 kts | 43° |
| 2026-04-22 23:08 | 42.18855 | -82.96434 | 26065 ft | 337 kts | 43° |
| 2026-04-22 23:08 | 42.20299 | -82.93915 | 26907 ft | 350 kts | 55° |
| 2026-04-22 23:08 | 42.21179 | -82.90730 | 27761 ft | 366 kts | 69° |
| 2026-04-22 23:09 | 42.21753 | -82.87419 | 28639 ft | 372 kts | 71° |
| 2026-04-22 23:09 | 42.22266 | -82.83956 | 29484 ft | 378 kts | 72° |
| 2026-04-22 23:09 | 42.22762 | -82.80437 | 30309 ft | 385 kts | 72° |
| 2026-04-22 23:09 | 42.23251 | -82.76937 | 31201 ft | 389 kts | 72° |
| 2026-04-22 23:10 | 42.23754 | -82.73311 | 31968 ft | 398 kts | 72° |
| 2026-04-22 23:10 | 42.24285 | -82.69514 | 32044 ft | 427 kts | 72° |
| 2026-04-22 23:10 | 42.24843 | -82.65469 | 32084 ft | 453 kts | 75° |
| 2026-04-22 23:10 | 42.25203 | -82.61121 | 32014 ft | 470 kts | 73° |
| 2026-04-22 23:11 | 42.26594 | -82.52351 | 31997 ft | 491 kts | 72° |
| 2026-04-22 23:11 | 42.28097 | -82.43420 | 31986 ft | 496 kts | 77° |
| 2026-04-22 23:12 | 42.29119 | -82.34340 | 31987 ft | 478 kts | 75° |
| 2026-04-22 23:12 | 42.29700 | -82.29878 | 32155 ft | 484 kts | 74° |
| 2026-04-22 23:12 | 42.30300 | -82.25359 | 31932 ft | 493 kts | 74° |
| 2026-04-22 23:13 | 42.30899 | -82.20851 | 32046 ft | 492 kts | 74° |
| 2026-04-22 23:13 | 42.31506 | -82.16301 | 32002 ft | 495 kts | 74° |
| 2026-04-22 23:13 | 42.32722 | -82.07136 | 32038 ft | 495 kts | 74° |
| 2026-04-22 23:14 | 42.33932 | -81.97987 | 32026 ft | 495 kts | 74° |
| 2026-04-22 23:14 | 42.35132 | -81.88844 | 31998 ft | 496 kts | 74° |
| 2026-04-22 23:15 | 42.36152 | -81.79637 | 31931 ft | 506 kts | 85° |
| 2026-04-22 23:15 | 42.35553 | -81.74940 | 31931 ft | 517 kts | 105° |
| 2026-04-22 23:15 | 42.33989 | -81.70564 | 32145 ft | 520 kts | 117° |
| 2026-04-22 23:16 | 42.32063 | -81.66431 | 31994 ft | 528 kts | 121° |
| 2026-04-22 23:16 | 42.29976 | -81.62338 | 31992 ft | 527 kts | 122° |
| 2026-04-22 23:16 | 42.25800 | -81.54223 | 31932 ft | 526 kts | 115° |
| 2026-04-22 23:17 | 42.24604 | -81.49661 | 31927 ft | 511 kts | 96° |
| 2026-04-22 23:17 | 42.23733 | -81.45046 | 32116 ft | 515 kts | 103° |
| 2026-04-22 23:17 | 42.23085 | -81.40316 | 31861 ft | 506 kts | 84° |
| 2026-04-22 23:17 | 42.23513 | -81.35747 | 32107 ft | 490 kts | 74° |
| 2026-04-22 23:18 | 42.23840 | -81.31147 | 32075 ft | 503 kts | 82° |
| 2026-04-22 23:18 | 42.23929 | -81.26421 | 31905 ft | 506 kts | 84° |
| 2026-04-22 23:18 | 42.23916 | -81.21680 | 32083 ft | 505 kts | 85° |
| 2026-04-22 23:18 | 42.23868 | -81.16964 | 31928 ft | 509 kts | 85° |
| 2026-04-22 23:19 | 42.23727 | -81.07412 | 31979 ft | 509 kts | 85° |
| 2026-04-22 23:19 | 42.23566 | -80.97897 | 32009 ft | 510 kts | 85° |
| 2026-04-22 23:20 | 42.23397 | -80.88315 | 32010 ft | 510 kts | 85° |
| 2026-04-22 23:20 | 42.23221 | -80.78795 | 31999 ft | 510 kts | 85° |
| 2026-04-22 23:21 | 42.23038 | -80.69216 | 31999 ft | 509 kts | 85° |
| 2026-04-22 23:21 | 42.22845 | -80.59687 | 31999 ft | 509 kts | 85° |
| 2026-04-22 23:22 | 42.22645 | -80.50188 | 32000 ft | 509 kts | 85° |
| 2026-04-22 23:22 | 42.22436 | -80.40623 | 32005 ft | 509 kts | 85° |
| 2026-04-22 23:23 | 42.22222 | -80.31112 | 32004 ft | 509 kts | 85° |
| 2026-04-22 23:23 | 42.21999 | -80.21590 | 32005 ft | 510 kts | 85° |
| 2026-04-22 23:24 | 42.21766 | -80.12022 | 32009 ft | 510 kts | 85° |
| 2026-04-22 23:24 | 42.21522 | -80.02458 | 32007 ft | 511 kts | 85° |
| 2026-04-22 23:25 | 42.21276 | -79.92901 | 32009 ft | 511 kts | 85° |
| 2026-04-22 23:25 | 42.21019 | -79.83319 | 32008 ft | 511 kts | 85° |
| 2026-04-22 23:26 | 42.20758 | -79.73815 | 32011 ft | 511 kts | 85° |
| 2026-04-22 23:26 | 42.20483 | -79.64223 | 32006 ft | 510 kts | 85° |
| 2026-04-22 23:27 | 42.20204 | -79.54697 | 32009 ft | 510 kts | 85° |
| 2026-04-22 23:27 | 42.19919 | -79.45171 | 32006 ft | 513 kts | 85° |
| 2026-04-22 23:28 | 42.19622 | -79.35572 | 32034 ft | 514 kts | 85° |
| 2026-04-22 23:28 | 42.19311 | -79.25832 | 32028 ft | 515 kts | 85° |
| 2026-04-22 23:29 | 42.18997 | -79.16247 | 32020 ft | 515 kts | 85° |
| 2026-04-22 23:29 | 42.19206 | -79.11550 | 31897 ft | 488 kts | 70° |
| 2026-04-22 23:29 | 42.20282 | -79.07354 | 31261 ft | 465 kts | 58° |
| 2026-04-22 23:30 | 42.21570 | -79.03303 | 30598 ft | 462 kts | 58° |
| 2026-04-22 23:30 | 42.22816 | -78.99327 | 29957 ft | 459 kts | 58° |
| 2026-04-22 23:30 | 42.24043 | -78.95373 | 29345 ft | 457 kts | 58° |
| 2026-04-22 23:30 | 42.25245 | -78.91480 | 28740 ft | 449 kts | 59° |
| 2026-04-22 23:31 | 42.26439 | -78.87594 | 28124 ft | 443 kts | 59° |
| 2026-04-22 23:31 | 42.27613 | -78.83784 | 27469 ft | 439 kts | 59° |
| 2026-04-22 23:31 | 42.28772 | -78.80005 | 26772 ft | 435 kts | 60° |
| 2026-04-22 23:31 | 42.29920 | -78.76252 | 26088 ft | 432 kts | 60° |
| 2026-04-22 23:32 | 42.31057 | -78.72532 | 25416 ft | 427 kts | 60° |
| 2026-04-22 23:32 | 42.32180 | -78.68851 | 24733 ft | 422 kts | 60° |
| 2026-04-22 23:32 | 42.33293 | -78.65194 | 24025 ft | 418 kts | 60° |
| 2026-04-22 23:32 | 42.34384 | -78.61617 | 23318 ft | 414 kts | 61° |
| 2026-04-22 23:33 | 42.35475 | -78.58015 | 22598 ft | 410 kts | 61° |
| 2026-04-22 23:33 | 42.36541 | -78.54504 | 21880 ft | 405 kts | 61° |
| 2026-04-22 23:33 | 42.37613 | -78.50967 | 21158 ft | 401 kts | 61° |
| 2026-04-22 23:33 | 42.38663 | -78.47495 | 20440 ft | 397 kts | 61° |
| 2026-04-22 23:34 | 42.39690 | -78.44100 | 19736 ft | 393 kts | 61° |
| 2026-04-22 23:34 | 42.40719 | -78.40692 | 19023 ft | 389 kts | 61° |
| 2026-04-22 23:34 | 42.41744 | -78.37295 | 18310 ft | 386 kts | 61° |
| 2026-04-22 23:34 | 42.42754 | -78.33939 | 17607 ft | 382 kts | 62° |
| 2026-04-22 23:35 | 42.43744 | -78.30647 | 16903 ft | 379 kts | 62° |
| 2026-04-22 23:35 | 42.44731 | -78.27357 | 16203 ft | 376 kts | 62° |
| 2026-04-22 23:35 | 42.45720 | -78.24062 | 15492 ft | 374 kts | 62° |
| 2026-04-22 23:35 | 42.46683 | -78.20852 | 14802 ft | 371 kts | 62° |
| 2026-04-22 23:36 | 42.47659 | -78.17589 | 14091 ft | 369 kts | 62° |
| 2026-04-22 23:36 | 42.48620 | -78.14384 | 13398 ft | 367 kts | 62° |
| 2026-04-22 23:36 | 42.49571 | -78.11197 | 12712 ft | 365 kts | 62° |
| 2026-04-22 23:36 | 42.50529 | -78.07987 | 12012 ft | 362 kts | 62° |
| 2026-04-22 23:37 | 42.51466 | -78.04837 | 11324 ft | 360 kts | 62° |
| 2026-04-22 23:37 | 42.52397 | -78.01707 | 10631 ft | 358 kts | 63° |
| 2026-04-22 23:37 | 42.53327 | -77.98576 | 9927 ft | 355 kts | 63° |
| 2026-04-22 23:37 | 42.54241 | -77.95503 | 9237 ft | 353 kts | 63° |
| 2026-04-22 23:38 | 42.55148 | -77.92440 | 8534 ft | 350 kts | 63° |
| 2026-04-22 23:38 | 42.56054 | -77.89382 | 7837 ft | 347 kts | 64° |
| 2026-04-22 23:38 | 42.56947 | -77.86359 | 7126 ft | 338 kts | 64° |
| 2026-04-22 23:38 | 42.57802 | -77.83452 | 6348 ft | 324 kts | 64° |
| 2026-04-22 23:39 | 42.58601 | -77.80728 | 5855 ft | 299 kts | 64° |
| 2026-04-22 23:39 | 42.59355 | -77.78165 | 5359 ft | 281 kts | 64° |
| 2026-04-22 23:39 | 42.60062 | -77.75767 | 4868 ft | 268 kts | 64° |
| 2026-04-22 23:39 | 42.60740 | -77.73461 | 4405 ft | 258 kts | 64° |
| 2026-04-22 23:40 | 42.61397 | -77.71233 | 4027 ft | 252 kts | 64° |
| 2026-04-22 23:40 | 42.62032 | -77.69061 | 3830 ft | 242 kts | 64° |
| 2026-04-22 23:40 | 42.62648 | -77.66960 | 3615 ft | 236 kts | 64° |
| 2026-04-22 23:40 | 42.63324 | -77.64696 | 3440 ft | 276 kts | 64° |
| 2026-04-22 23:41 | 42.64129 | -77.62253 | 4170 ft | 281 kts | 66° |
| 2026-04-22 23:41 | 42.64798 | -77.59815 | 3978 ft | 265 kts | 65° |
| 2026-04-22 23:41 | 42.65446 | -77.57521 | 3755 ft | 253 kts | 65° |
| 2026-04-22 23:41 | 42.66068 | -77.55339 | 3710 ft | 237 kts | 64° |
| 2026-04-22 23:42 | 42.66636 | -77.53359 | 3866 ft | 213 kts | 64° |
| 2026-04-22 23:42 | 42.67185 | -77.51460 | 3985 ft | 218 kts | 63° |
| 2026-04-22 23:42 | 42.67763 | -77.49492 | 4014 ft | 227 kts | 63° |
| 2026-04-22 23:42 | 42.68335 | -77.47519 | 4363 ft | 228 kts | 64° |
| 2026-04-22 23:43 | 42.68970 | -77.45351 | 4769 ft | 256 kts | 64° |
| 2026-04-22 23:43 | 42.69637 | -77.43053 | 5040 ft | 270 kts | 64° |
| 2026-04-22 23:43 | 42.70353 | -77.40589 | 5065 ft | 290 kts | 64° |
| 2026-04-22 23:43 | 42.71077 | -77.38084 | 5058 ft | 273 kts | 64° |
| 2026-04-22 23:44 | 42.71752 | -77.35732 | 4979 ft | 254 kts | 63° |
| 2026-04-22 23:44 | 42.72369 | -77.33589 | 4979 ft | 235 kts | 64° |
| 2026-04-22 23:44 | 42.72948 | -77.31572 | 4957 ft | 220 kts | 64° |
| 2026-04-22 23:44 | 42.73489 | -77.29697 | 4968 ft | 205 kts | 64° |
| 2026-04-22 23:45 | 42.73994 | -77.27949 | 4982 ft | 192 kts | 63° |
| 2026-04-22 23:45 | 42.74471 | -77.26289 | 4985 ft | 182 kts | 63° |
| 2026-04-22 23:45 | 42.74922 | -77.24725 | 4977 ft | 172 kts | 63° |
| 2026-04-22 23:45 | 42.75346 | -77.23247 | 4971 ft | 162 kts | 62° |
| 2026-04-22 23:46 | 42.75748 | -77.21856 | 4938 ft | 156 kts | 62° |
| 2026-04-22 23:46 | 42.76247 | -77.20239 | 4872 ft | 218 kts | 60° |
| 2026-04-22 23:46 | 42.76725 | -77.18702 | 6261 ft | 182 kts | 62° |
| 2026-04-22 23:46 | 42.77177 | -77.17100 | 6154 ft | 183 kts | 62° |
| 2026-04-22 23:47 | 42.77667 | -77.15379 | 5603 ft | 212 kts | 63° |
| 2026-04-22 23:47 | 42.78244 | -77.13381 | 5195 ft | 243 kts | 64° |
| 2026-04-22 23:47 | 42.78863 | -77.11185 | 5096 ft | 248 kts | 65° |
| 2026-04-22 23:47 | 42.79481 | -77.08991 | 5034 ft | 247 kts | 64° |
| 2026-04-22 23:48 | 42.80096 | -77.06816 | 5021 ft | 245 kts | 64° |
| 2026-04-22 23:48 | 42.80718 | -77.04638 | 5038 ft | 246 kts | 64° |
| 2026-04-22 23:48 | 42.81346 | -77.02430 | 5034 ft | 251 kts | 64° |
| 2026-04-22 23:48 | 42.81976 | -77.00214 | 5016 ft | 254 kts | 64° |
| 2026-04-22 23:49 | 42.82616 | -76.97971 | 5036 ft | 255 kts | 64° |
| 2026-04-22 23:49 | 42.83262 | -76.95705 | 5033 ft | 258 kts | 64° |
| 2026-04-22 23:49 | 42.83918 | -76.93411 | 5031 ft | 259 kts | 64° |
| 2026-04-22 23:49 | 42.84571 | -76.91114 | 5028 ft | 261 kts | 64° |
| 2026-04-22 23:50 | 42.85228 | -76.88800 | 5029 ft | 262 kts | 64° |
| 2026-04-22 23:50 | 42.85890 | -76.86471 | 5016 ft | 262 kts | 64° |
| 2026-04-22 23:50 | 42.86550 | -76.84141 | 5024 ft | 263 kts | 64° |
| 2026-04-22 23:50 | 42.87212 | -76.81815 | 5019 ft | 263 kts | 65° |
| 2026-04-22 23:51 | 42.87876 | -76.79472 | 5011 ft | 264 kts | 65° |
| 2026-04-22 23:51 | 42.88536 | -76.77135 | 5012 ft | 264 kts | 65° |
| 2026-04-22 23:51 | 42.89200 | -76.74786 | 5017 ft | 261 kts | 65° |
| 2026-04-22 23:51 | 42.89851 | -76.72475 | 5008 ft | 258 kts | 65° |
| 2026-04-22 23:52 | 42.90492 | -76.70201 | 4999 ft | 255 kts | 64° |
| 2026-04-22 23:52 | 42.91129 | -76.67937 | 5004 ft | 253 kts | 64° |
| 2026-04-22 23:52 | 42.91758 | -76.65698 | 5001 ft | 251 kts | 64° |
| 2026-04-22 23:52 | 42.92380 | -76.63499 | 5007 ft | 250 kts | 64° |
| 2026-04-22 23:53 | 42.93006 | -76.61273 | 5010 ft | 250 kts | 64° |
| 2026-04-22 23:53 | 42.93644 | -76.59009 | 4690 ft | 261 kts | 64° |
| 2026-04-22 23:53 | 42.94289 | -76.56716 | 4150 ft | 262 kts | 65° |
| 2026-04-22 23:53 | 42.94942 | -76.54388 | 3605 ft | 262 kts | 65° |
| 2026-04-22 23:54 | 42.95591 | -76.52078 | 3101 ft | 260 kts | 66° |
| 2026-04-22 23:54 | 42.96219 | -76.49813 | 2993 ft | 243 kts | 65° |
| 2026-04-22 23:54 | 42.96816 | -76.47678 | 2993 ft | 238 kts | 65° |
| 2026-04-22 23:54 | 42.97398 | -76.45588 | 3003 ft | 236 kts | 65° |
| 2026-04-22 23:55 | 42.97623 | -76.43349 | 2996 ft | 239 kts | 87° |
| 2026-04-22 23:55 | 42.97575 | -76.41080 | 3010 ft | 237 kts | 88° |
| 2026-04-22 23:55 | 42.97511 | -76.38821 | 3002 ft | 241 kts | 91° |
| 2026-04-22 23:55 | 42.97238 | -76.36538 | 3014 ft | 245 kts | 97° |
| 2026-04-22 23:56 | 42.96900 | -76.34250 | 3004 ft | 249 kts | 98° |
| 2026-04-22 23:56 | 42.96555 | -76.31892 | 3007 ft | 251 kts | 98° |
| 2026-04-22 23:56 | 42.96213 | -76.29529 | 3027 ft | 253 kts | 98° |
| 2026-04-22 23:56 | 42.95878 | -76.27152 | 3019 ft | 256 kts | 98° |
| 2026-04-22 23:57 | 42.95545 | -76.24754 | 3001 ft | 258 kts | 98° |
| 2026-04-22 23:57 | 42.95209 | -76.22346 | 3014 ft | 259 kts | 98° |
| 2026-04-22 23:57 | 42.94867 | -76.19909 | 3009 ft | 260 kts | 98° |
| 2026-04-22 23:57 | 42.94525 | -76.17452 | 3012 ft | 261 kts | 98° |
| 2026-04-22 23:58 | 42.94184 | -76.15037 | 3013 ft | 260 kts | 98° |
| 2026-04-22 23:58 | 42.93842 | -76.12605 | 2994 ft | 256 kts | 98° |
| 2026-04-22 23:58 | 42.93505 | -76.10243 | 3012 ft | 251 kts | 98° |
| 2026-04-22 23:58 | 42.92288 | -76.01581 | 2997 ft | 246 kts | 96° |
| 2026-04-22 23:59 | 42.92502 | -75.99341 | 2983 ft | 233 kts | 57° |
| 2026-04-22 23:59 | 42.93658 | -75.97924 | 3025 ft | 220 kts | 21° |
| 2026-04-22 23:59 | 42.95089 | -75.97298 | 3026 ft | 210 kts | 11° |
| 2026-04-22 23:59 | 42.96484 | -75.96920 | 2997 ft | 197 kts | 6° |
| 2026-04-23 00:00 | 42.99072 | -75.96476 | 2976 ft | 175 kts | 3° |
| 2026-04-23 00:00 | 43.00251 | -75.96317 | 2968 ft | 165 kts | 2° |
| 2026-04-23 00:00 | 43.01432 | -75.96173 | 3000 ft | 178 kts | 2° |
| 2026-04-23 00:01 | 43.02708 | -75.96022 | 3034 ft | 192 kts | 2° |
| 2026-04-23 00:01 | 43.04086 | -75.95863 | 2974 ft | 198 kts | 1° |
| 2026-04-23 00:01 | 43.05448 | -75.95714 | 2764 ft | 195 kts | 1° |
| 2026-04-23 00:01 | 43.06792 | -75.95564 | 2432 ft | 191 kts | 1° |
| 2026-04-23 00:02 | 43.08103 | -75.95421 | 2049 ft | 188 kts | 1° |
| 2026-04-23 00:02 | 43.09401 | -75.95312 | 1690 ft | 185 kts | 359° |
| 2026-04-23 00:02 | 43.10627 | -75.95246 | 1583 ft | 170 kts | 360° |
| 2026-04-23 00:02 | 43.11686 | -75.94628 | 1520 ft | 170 kts | 43° |
| 2026-04-23 00:03 | 43.12119 | -75.93066 | 1645 ft | 193 kts | 88° |
| 2026-04-23 00:03 | 43.11736 | -75.93389 | 1718 ft | 198 kts | 258° |
| 2026-04-23 00:03 | 43.11506 | -75.95138 | 1589 ft | 175 kts | 266° |
| 2026-04-23 00:03 | 43.11387 | -75.96680 | 1642 ft | 151 kts | 269° |
| 2026-04-23 00:04 | 43.11312 | -75.98007 | 1674 ft | 134 kts | 271° |
| 2026-04-23 00:04 | 43.11261 | -75.99278 | 1599 ft | 129 kts | 272° |
| 2026-04-23 00:04 | 43.11216 | -76.00479 | 1588 ft | 123 kts | 273° |
| 2026-04-23 00:04 | 43.11178 | -76.01659 | 1486 ft | 124 kts | 272° |
| 2026-04-23 00:05 | 43.11140 | -76.02831 | 1332 ft | 124 kts | 272° |
| 2026-04-23 00:05 | 43.11102 | -76.04028 | 1173 ft | 124 kts | 271° |
| 2026-04-23 00:05 | 43.11065 | -76.05209 | 1001 ft | 125 kts | 271° |
| 2026-04-23 00:05 | 43.11025 | -76.06406 | 833 ft | 125 kts | 270° |
| 2026-04-23 00:06 | 43.10968 | -76.07579 | 679 ft | 123 kts | 270° |
| 2026-04-23 00:06 | 43.10943 | -76.08754 | 501 ft | 121 kts | 268° |
| 2026-04-23 00:06 | 43.10912 | -76.09897 | 406 ft | 109 kts | 264° |
| 2026-04-23 00:06 | 43.10887 | -76.10590 | 411 ft | 59 kts | 268° |
| 2026-04-23 00:07 | 43.10873 | -76.11036 | 417 ft | 39 kts | 266° |
| 2026-04-23 00:07 | 43.10867 | -76.11273 | 417 ft | 1 kts | 278° |
| 2026-04-23 00:07 | 43.10901 | -76.11327 | 417 ft | 3 kts | 327° |
| 2026-04-23 00:07 | 43.10933 | -76.11350 | 417 ft | 6 kts | 336° |
| 2026-04-23 00:08 | 43.10951 | -76.11359 | 417 ft | 2 kts | 349° |
| 2026-04-23 00:08 | 43.10976 | -76.11352 | 417 ft | 5 kts | 32° |
| 2026-04-23 00:08 | 43.11016 | -76.11302 | 417 ft | 9 kts | 28° |
| 2026-04-23 00:08 | 43.11076 | -76.11238 | 417 ft | 12 kts | 66° |
| 2026-04-23 00:09 | 43.11126 | -76.11148 | 417 ft | 12 kts | 20° |
| 2026-04-23 00:09 | 43.11192 | -76.11087 | 417 ft | 11 kts | 45° |
| 2026-04-23 00:09 | 43.11241 | -76.11064 | 417 ft | 5 kts | 359° |
| 2026-04-23 00:09 | 43.11250 | -76.11065 | 417 ft | 0 kts | 357° |